Time;durP1;ratioP1;P1;durP2;ratioP2;P2;SDS_P1;SDS_P2;PMS_P1;PMS_P2;Temp;Humidity;BMP_temperature;BMP_pressure;BME280_temperature;BME280_humidity;BME280_pressure;Samples;Min_cycle;Max_cycle;Signal;HPM_P1;HPM_P2
2022/11/27 00:03:29;;;;;;;112.67;15.60;;;;;;;6.09;52.74;100972.97;10333558;28;20237;-66
2022/11/27 00:08:31;;;;;;;43.20;12.87;;;;;;;7.40;50.50;100937.13;10387731;28;20729;-66
2022/11/27 00:13:33;;;;;;;65.87;12.43;;;;;;;5.81;53.35;100983.19;10391314;28;20667;-67
2022/11/27 00:18:35;;;;;;;84.97;13.53;;;;;;;5.87;53.15;100972.06;10396610;28;20235;-66
2022/11/27 00:23:37;;;;;;;96.60;13.03;;;;;;;6.32;52.99;100946.31;10395842;28;20233;-66
2022/11/27 00:28:39;;;;;;;84.20;18.93;;;;;;;7.60;50.69;100904.22;10395903;28;20592;-66
2022/11/27 00:33:41;;;;;;;64.17;16.30;;;;;;;6.83;52.12;100934.91;10397122;28;20295;-67
2022/11/27 00:38:42;;;;;;;60.73;16.27;;;;;;;6.43;52.28;100954.22;10396541;28;20241;-66
2022/11/27 00:43:45;;;;;;;115.17;13.53;;;;;;;6.50;51.99;100942.09;10394507;28;20234;-66
2022/11/27 00:48:47;;;;;;;54.87;13.30;;;;;;;6.33;52.60;100945.31;10392839;28;20719;-66
2022/11/27 00:53:49;;;;;;;68.63;13.13;;;;;;;5.20;55.26;100942.91;10395895;28;20253;-66
2022/11/27 00:58:51;;;;;;;73.67;13.30;;;;;;;6.15;53.29;100921.97;10392433;28;20739;-66
2022/11/27 01:03:55;;;;;;;38.37;11.27;;;;;;;6.98;51.92;100888.34;10337214;28;20242;-67
2022/11/27 01:08:57;;;;;;;58.63;15.00;;;;;;;6.27;52.76;100901.50;10394796;28;20593;-66
2022/11/27 01:14:07;;;;;;;42.57;10.63;;;;;;;6.53;52.63;100901.97;10393806;28;20231;-66
2022/11/27 01:19:11;;;;;;;30.43;11.37;;;;;;;6.04;52.87;100917.56;10351686;28;20246;-66
2022/11/27 01:24:14;;;;;;;42.70;11.77;;;;;;;6.27;52.84;100906.81;10389683;28;20241;-66
2022/11/27 01:29:16;;;;;;;57.97;11.17;;;;;;;6.63;52.88;100894.88;10394195;28;20656;-67
2022/11/27 01:34:18;;;;;;;43.30;10.97;;;;;;;6.84;51.78;100875.41;10403273;28;20659;-67
2022/11/27 01:39:20;;;;;;;43.43;11.27;;;;;;;6.35;53.36;100914.16;10393890;28;20243;-67
2022/11/27 01:44:24;;;;;;;28.83;11.47;;;;;;;7.05;51.68;100874.50;10395368;28;20319;-66
2022/11/27 01:49:32;;;;;;;44.27;10.10;;;;;;;5.59;55.05;100914.19;10393113;28;20234;-66
2022/11/27 01:54:40;;;;;;;25.90;10.53;;;;;;;4.92;55.98;100897.31;10383567;28;20231;-66
2022/11/27 01:59:44;;;;;;;34.03;11.97;;;;;;;5.92;53.82;100883.16;10399582;28;20272;-70
2022/11/27 02:04:45;;;;;;;36.50;11.80;;;;;;;5.14;55.98;100896.47;10346669;28;20230;-66
2022/11/27 02:09:47;;;;;;;56.00;12.63;;;;;;;5.21;56.00;100892.34;10393443;28;20256;-66
2022/11/27 02:14:51;;;;;;;29.17;10.80;;;;;;;4.76;56.74;100895.88;10391621;28;20242;-66
2022/11/27 02:20:32;;;;;;;26.00;11.50;;;;;;;4.66;56.67;100884.28;10402390;28;20238;-66
2022/11/27 02:25:55;;;;;;;46.97;11.60;;;;;;;6.01;53.84;100861.13;10389984;28;20662;-65
2022/11/27 02:31:04;;;;;;;31.63;11.33;;;;;;;6.19;54.23;100856.09;10393869;28;20234;-66
2022/11/27 02:36:13;;;;;;;19.47;11.10;;;;;;;5.29;54.99;100874.00;10370733;28;20241;-65
2022/11/27 02:41:45;;;;;;;35.43;10.87;;;;;;;5.00;56.57;100867.53;10382027;28;20241;-66
2022/11/27 02:46:48;;;;;;;52.67;11.20;;;;;;;6.40;53.67;100818.91;10392318;28;20241;-66
2022/11/27 02:51:56;;;;;;;38.63;12.50;;;;;;;6.17;52.97;100885.47;10371336;28;20262;-65
2022/11/27 02:57:02;;;;;;;29.73;11.00;;;;;;;6.53;53.06;100822.19;10347560;28;20760;-66
2022/11/27 03:02:09;;;;;;;27.57;11.00;;;;;;;6.92;52.60;100819.72;10297425;28;20238;-67
2022/11/27 03:07:30;;;;;;;34.53;10.97;;;;;;;6.29;53.29;100872.13;10353029;28;20329;-66
2022/11/27 03:12:32;;;;;;;33.37;10.60;;;;;;;6.78;53.36;100825.38;10393333;28;20260;-67
2022/11/27 03:18:07;;;;;;;23.30;11.23;;;;;;;7.29;51.62;100829.75;10389700;28;20244;-67
2022/11/27 03:23:08;;;;;;;29.00;11.27;;;;;;;6.44;52.51;100860.19;10386203;28;20231;-67
2022/11/27 03:28:12;;;;;;;38.73;12.07;;;;;;;6.97;52.37;100827.25;10391654;28;20245;-67
2022/11/27 03:33:14;;;;;;;34.17;12.57;;;;;;;6.82;52.32;100848.09;10391868;28;20249;-66
2022/11/27 03:38:16;;;;;;;29.43;13.27;;;;;;;8.13;50.34;100806.22;10391476;28;20231;-65
2022/11/27 03:43:22;;;;;;;35.33;12.77;;;;;;;5.33;55.48;100837.44;10393058;28;20231;-67
2022/11/27 03:48:36;;;;;;;43.37;11.87;;;;;;;5.16;56.41;100835.31;10396072;28;20231;-64
2022/11/27 03:54:02;;;;;;;31.57;12.23;;;;;;;5.30;55.78;100848.31;10398208;28;20224;-65
2022/11/27 03:59:32;;;;;;;33.10;11.50;;;;;;;6.41;54.22;100805.47;10371997;28;20614;-65
2022/11/27 04:04:34;;;;;;;26.93;11.17;;;;;;;5.04;55.50;100824.72;10329828;28;20239;-65
2022/11/27 04:09:35;;;;;;;27.47;11.83;;;;;;;4.47;57.60;100799.19;10372301;28;20234;-65
2022/11/27 04:14:37;;;;;;;45.20;11.60;;;;;;;3.89;58.72;100755.00;10388968;28;20207;-64
2022/11/27 04:19:39;;;;;;;34.13;11.53;;;;;;;4.19;58.07;100778.28;10397873;28;20231;-64
2022/11/27 04:24:41;;;;;;;29.37;11.03;;;;;;;4.18;57.78;100773.09;10396679;28;20230;-65
2022/11/27 04:29:43;;;;;;;32.50;11.00;;;;;;;4.35;58.20;100771.81;10397392;28;20234;-64
2022/11/27 04:34:44;;;;;;;40.40;10.43;;;;;;;4.57;56.97;100758.56;10395249;28;20678;-65
2022/11/27 04:39:46;;;;;;;28.63;12.17;;;;;;;6.28;54.38;100726.88;10396955;28;20618;-65
2022/11/27 04:44:47;;;;;;;26.57;10.33;;;;;;;5.44;53.95;100781.69;10397175;28;20231;-65
2022/11/27 04:49:49;;;;;;;52.87;12.37;;;;;;;6.05;55.04;100741.19;10396537;28;20605;-65
2022/11/27 04:54:51;;;;;;;38.93;10.93;;;;;;;5.61;54.61;100766.22;10398578;28;20235;-65
2022/11/27 05:00:00;;;;;;;24.93;10.27;;;;;;;7.53;50.75;100720.16;10353962;28;20244;-65
2022/11/27 05:05:02;;;;;;;35.13;11.13;;;;;;;6.49;52.63;100786.19;10314167;28;20253;-64
2022/11/27 05:10:05;;;;;;;35.33;9.67;;;;;;;7.05;51.39;100771.53;10373035;28;20292;-65
2022/11/27 05:15:08;;;;;;;49.80;10.87;;;;;;;7.63;50.46;100775.22;10331702;28;20231;-65
2022/11/27 05:20:10;;;;;;;26.40;10.10;;;;;;;7.49;51.29;100784.50;10377788;28;20239;-65
2022/11/27 05:25:11;;;;;;;66.30;12.03;;;;;;;6.53;52.95;100808.03;10395306;28;21044;-67
2022/11/27 05:30:13;;;;;;;30.60;11.63;;;;;;;7.50;51.26;100772.88;10394564;28;20237;-64
2022/11/27 05:35:15;;;;;;;27.57;10.30;;;;;;;7.51;51.91;100779.84;10379244;28;20756;-65
2022/11/27 05:40:16;;;;;;;44.73;11.27;;;;;;;6.97;50.93;100824.59;10394587;28;20249;-65
2022/11/27 05:45:18;;;;;;;48.17;11.43;;;;;;;5.87;54.25;100833.94;10394565;28;20617;-65
2022/11/27 05:50:20;;;;;;;44.37;11.00;;;;;;;7.11;52.69;100781.66;10395053;28;20231;-65
2022/11/27 05:55:21;;;;;;;38.50;11.23;;;;;;;6.91;52.75;100806.53;10394557;28;20389;-65
2022/11/27 06:00:25;;;;;;;29.03;10.40;;;;;;;7.18;51.67;100780.09;10355981;28;20711;-65
2022/11/27 06:05:27;;;;;;;41.23;11.23;;;;;;;6.76;52.22;100772.31;10348099;28;20922;-68
2022/11/27 06:10:29;;;;;;;46.63;10.83;;;;;;;7.32;51.49;100759.41;10393027;28;20239;-64
2022/11/27 06:15:30;;;;;;;29.70;12.00;;;;;;;8.15;50.13;100734.91;10382231;28;20286;-67
2022/11/27 06:20:32;;;;;;;85.13;12.27;;;;;;;6.67;52.33;100791.72;10378305;28;20239;-65
2022/11/27 06:25:34;;;;;;;31.20;10.83;;;;;;;7.28;51.89;100790.78;10391979;28;20241;-65
2022/11/27 06:30:36;;;;;;;50.57;12.30;;;;;;;7.84;50.94;100748.44;10402064;28;20288;-66
2022/11/27 06:35:38;;;;;;;62.67;11.20;;;;;;;4.97;55.45;100717.41;10393282;28;20608;-67
2022/11/27 06:40:40;;;;;;;75.70;12.90;;;;;;;5.57;54.57;100778.00;10392822;28;20285;-66
2022/11/27 06:45:41;;;;;;;40.37;11.70;;;;;;;5.96;54.31;100780.97;10392920;28;20292;-64
2022/11/27 06:50:43;;;;;;;67.97;13.23;;;;;;;5.45;55.54;100766.59;10392637;28;20250;-67
2022/11/27 06:55:45;;;;;;;64.27;12.80;;;;;;;6.18;54.68;100753.44;10389565;28;20288;-63
2022/11/27 07:00:47;;;;;;;25.97;11.57;;;;;;;8.24;50.55;100688.72;10376320;28;20242;-66
2022/11/27 07:05:49;;;;;;;43.77;10.97;;;;;;;7.68;50.91;100693.91;10362118;28;20255;-67
2022/11/27 07:10:50;;;;;;;26.60;11.70;;;;;;;7.97;50.38;100702.88;10383136;28;20715;-67
2022/11/27 07:15:52;;;;;;;25.30;11.53;;;;;;;7.15;51.66;100715.66;10340181;28;20235;-67
2022/11/27 07:20:54;;;;;;;36.27;12.30;;;;;;;7.43;50.79;100706.00;10369081;28;20231;-67
2022/11/27 07:25:57;;;;;;;26.47;10.87;;;;;;;5.23;55.85;100722.38;10399403;28;20737;-65
2022/11/27 07:31:00;;;;;;;32.13;11.67;;;;;;;4.94;55.68;100705.22;10399474;28;20242;-67
2022/11/27 07:36:12;;;;;;;47.73;12.33;;;;;;;5.51;55.16;100723.59;10374476;28;20238;-65
2022/11/27 07:41:14;;;;;;;49.97;11.97;;;;;;;4.98;56.38;100719.13;10399473;28;20257;-65
2022/11/27 07:46:22;;;;;;;36.83;11.57;;;;;;;5.08;55.27;100717.38;10398465;28;20238;-65
2022/11/27 07:51:24;;;;;;;32.47;12.17;;;;;;;6.72;53.23;100704.38;10399637;28;20244;-66
2022/11/27 07:56:26;;;;;;;31.60;10.40;;;;;;;5.92;53.08;100729.91;10396797;28;20248;-65
2022/11/27 08:01:28;;;;;;;26.83;11.50;;;;;;;7.17;52.22;100684.41;10382427;28;20262;-65
2022/11/27 08:06:30;;;;;;;32.03;10.43;;;;;;;6.95;52.29;100683.72;10345961;28;20249;-66
2022/11/27 08:11:34;;;;;;;25.73;11.63;;;;;;;6.29;53.65;100705.50;10398954;28;20784;-65
2022/11/27 08:16:35;;;;;;;25.80;11.20;;;;;;;7.23;51.05;100672.38;10346945;28;20231;-64
2022/11/27 08:21:37;;;;;;;25.77;12.20;;;;;;;7.01;52.29;100681.50;10290236;28;20359;-64
2022/11/27 08:26:39;;;;;;;24.53;12.40;;;;;;;8.23;50.44;100650.53;10362740;28;20246;-65
2022/11/27 08:31:40;;;;;;;42.27;20.70;;;;;;;6.21;53.17;100716.81;10385918;28;20242;-64
2022/11/27 08:36:42;;;;;;;69.30;25.30;;;;;;;5.42;55.83;100688.06;10387701;28;20241;-65
2022/11/27 08:41:44;;;;;;;34.10;13.33;;;;;;;7.09;53.33;100655.84;10387179;28;20253;-65
2022/11/27 08:46:46;;;;;;;33.20;12.53;;;;;;;5.50;55.41;100685.59;10383335;28;20235;-66
2022/11/27 08:51:47;;;;;;;25.30;11.93;;;;;;;6.59;53.46;100658.56;10386382;28;20237;-65
2022/11/27 08:56:51;;;;;;;29.03;13.30;;;;;;;5.95;55.49;100667.72;10382673;28;20234;-65
2022/11/27 09:01:53;;;;;;;33.17;12.57;;;;;;;6.55;54.37;100655.34;10368563;28;20234;-66
2022/11/27 09:06:54;;;;;;;30.10;13.60;;;;;;;7.09;52.24;100634.56;10361359;28;20241;-64
2022/11/27 09:11:59;;;;;;;27.53;13.13;;;;;;;7.04;53.35;100619.97;10366056;28;20231;-68
2022/11/27 09:17:01;;;;;;;26.10;12.77;;;;;;;6.77;53.12;100654.28;10305913;28;20259;-68
2022/11/27 09:22:02;;;;;;;25.93;13.40;;;;;;;5.40;55.22;100657.28;10297378;28;20248;-67
2022/11/27 09:27:04;;;;;;;26.93;12.67;;;;;;;6.75;53.44;100640.28;10312455;28;20254;-66
2022/11/27 09:32:06;;;;;;;26.67;13.07;;;;;;;8.11;51.48;100595.75;10284499;28;20352;-66
2022/11/27 09:37:08;;;;;;;22.53;12.03;;;;;;;7.51;50.91;100610.25;10327529;28;20230;-65
2022/11/27 09:42:25;;;;;;;24.20;11.83;;;;;;;8.19;50.00;100635.00;10324139;28;20231;-66
2022/11/27 09:47:55;;;;;;;23.10;12.33;;;;;;;8.31;50.12;100649.81;10285445;28;20646;-65
2022/11/27 09:53:04;;;;;;;22.53;11.93;;;;;;;7.69;50.83;100657.44;10281487;28;20234;-65
2022/11/27 09:58:17;;;;;;;23.13;12.53;;;;;;;7.76;50.08;100641.72;10274275;28;20252;-66
2022/11/27 10:03:24;;;;;;;27.40;14.03;;;;;;;7.68;51.39;100661.94;10327356;28;20746;-65
2022/11/27 10:09:03;;;;;;;26.00;15.43;;;;;;;8.34;49.86;100628.19;10337888;28;20266;-66
2022/11/27 10:14:10;;;;;;;26.50;15.47;;;;;;;7.64;50.99;100651.72;10336226;28;20300;-65
2022/11/27 10:19:31;;;;;;;29.33;13.93;;;;;;;7.82;51.11;100652.66;10382306;28;20242;-65
2022/11/27 10:24:44;;;;;;;26.53;13.70;;;;;;;8.23;49.34;100623.88;10352864;28;20234;-65
2022/11/27 10:29:53;;;;;;;31.77;14.90;;;;;;;6.97;51.81;100617.91;10277757;28;20238;-65
2022/11/27 10:35:00;;;;;;;26.03;13.77;;;;;;;6.63;52.81;100622.72;10280834;28;20261;-66
2022/11/27 10:40:07;;;;;;;23.43;12.77;;;;;;;7.72;51.47;100590.56;10320937;28;20281;-66
2022/11/27 10:45:28;;;;;;;22.43;13.27;;;;;;;7.10;51.91;100614.09;10344252;28;21038;-66
2022/11/27 10:50:30;;;;;;;24.50;13.97;;;;;;;7.12;52.77;100573.06;10363981;28;20296;-66
2022/11/27 10:55:51;;;;;;;22.77;13.80;;;;;;;7.59;51.50;100569.56;10371507;28;20617;-66
2022/11/27 11:06:23;;;;;;;28.90;14.33;;;;;;;4.53;59.78;100449.66;10578524;27;20346;-66
2022/11/27 11:11:26;;;;;;;29.37;15.20;;;;;;;4.40;59.15;100447.16;10520261;28;20310;-66
2022/11/27 11:16:29;;;;;;;27.10;14.70;;;;;;;5.64;57.41;100450.78;10518661;28;20235;-66
2022/11/27 11:21:41;;;;;;;26.73;15.60;;;;;;;4.04;60.18;100413.94;10520970;28;20234;-66
2022/11/27 11:26:52;;;;;;;23.57;15.53;;;;;;;6.02;56.76;100413.78;10519470;28;20313;-67
2022/11/27 11:31:55;;;;;;;27.00;16.07;;;;;;;4.94;58.27;100420.59;10521414;28;20234;-65
2022/11/27 11:37:01;;;;;;;24.13;14.70;;;;;;;5.10;58.44;100420.94;10519648;28;20235;-67
2022/11/27 11:42:28;;;;;;;26.77;15.10;;;;;;;5.10;57.81;100405.03;10519081;28;20710;-66
2022/11/27 11:47:30;;;;;;;25.30;15.00;;;;;;;6.10;55.85;100411.28;10512536;28;20234;-67
2022/11/27 11:52:41;;;;;;;28.37;15.73;;;;;;;5.60;56.23;100411.38;10517283;28;20223;-66
2022/11/27 11:58:21;;;;;;;21.97;14.70;;;;;;;5.78;57.12;100406.22;10507919;28;20225;-65
2022/11/27 12:03:28;;;;;;;19.53;13.27;;;;;;;5.72;57.72;100383.69;10513896;28;20234;-65
2022/11/27 12:09:07;;;;;;;21.13;13.53;;;;;;;6.35;56.63;100369.19;10521588;28;20242;-66
2022/11/27 12:14:10;;;;;;;21.50;13.33;;;;;;;6.72;55.55;100360.41;10508423;28;20227;-67
2022/11/27 12:19:23;;;;;;;20.90;13.27;;;;;;;4.89;59.18;100412.19;10492948;28;20588;-66
2022/11/27 12:24:42;;;;;;;19.33;13.57;;;;;;;6.87;55.57;100353.66;10490057;28;20227;-66
2022/11/27 12:30:19;;;;;;;26.57;14.07;;;;;;;5.52;58.13;100385.47;10453350;28;20651;-67
2022/11/27 12:35:31;;;;;;;19.10;12.73;;;;;;;6.46;56.67;100345.06;10493808;28;20227;-67
2022/11/27 12:41:17;;;;;;;19.97;13.13;;;;;;;6.04;56.53;100337.44;10485086;28;20612;-66
2022/11/27 12:46:25;;;;;;;23.77;14.60;;;;;;;5.99;57.67;100345.00;10489680;28;20235;-67
2022/11/27 12:51:29;;;;;;;22.47;14.13;;;;;;;5.27;58.17;100358.44;10486039;28;20312;-67
2022/11/27 12:56:38;;;;;;;21.03;14.03;;;;;;;4.63;59.79;100342.84;10485320;28;20242;-66
2022/11/27 13:01:49;;;;;;;20.63;13.63;;;;;;;5.36;58.37;100338.22;10482756;28;20311;-66
2022/11/27 13:07:19;;;;;;;20.30;13.60;;;;;;;5.99;57.21;100286.53;10487014;28;20770;-65
2022/11/27 13:12:50;;;;;;;18.70;13.13;;;;;;;5.97;57.27;100296.47;10490460;28;20315;-67
2022/11/27 13:18:40;;;;;;;20.40;14.23;;;;;;;5.19;57.99;100315.00;10464325;28;20238;-66
2022/11/27 13:23:41;;;;;;;19.27;13.40;;;;;;;6.93;55.74;100291.88;10486613;28;20609;-66
2022/11/27 13:28:50;;;;;;;20.80;12.93;;;;;;;6.46;56.19;100283.91;10490327;28;20235;-67
2022/11/27 13:34:03;;;;;;;20.37;13.47;;;;;;;6.58;55.68;100263.28;10492729;28;20223;-66
2022/11/27 13:39:06;;;;;;;21.70;13.27;;;;;;;7.35;54.67;100279.84;10485698;28;20238;-67
2022/11/27 13:44:23;;;;;;;20.50;13.30;;;;;;;6.34;55.85;100272.63;10489108;28;20239;-67
2022/11/27 13:49:31;;;;;;;20.13;13.00;;;;;;;6.74;55.76;100265.34;10486495;28;20239;-66
2022/11/27 13:54:33;;;;;;;18.70;12.77;;;;;;;6.06;56.43;100243.34;10483317;28;20230;-67
2022/11/27 13:59:35;;;;;;;18.23;13.10;;;;;;;6.61;55.78;100237.25;10486483;28;20227;-66
2022/11/27 14:04:49;;;;;;;22.87;14.83;;;;;;;5.93;57.42;100234.00;10478871;28;20628;-66
2022/11/27 14:10:08;;;;;;;22.43;15.67;;;;;;;5.39;59.08;100229.13;10488610;28;20312;-67
2022/11/27 14:15:25;;;;;;;21.67;15.23;;;;;;;5.92;57.48;100200.44;10481957;28;20265;-67
2022/11/27 14:20:30;;;;;;;19.43;13.17;;;;;;;7.61;54.44;100237.34;10488517;28;20258;-67
2022/11/27 14:25:36;;;;;;;23.33;15.10;;;;;;;8.31;52.43;100271.16;10478986;28;20231;-66
2022/11/27 14:30:48;;;;;;;21.87;14.07;;;;;;;7.92;53.42;100266.22;10526331;28;20265;-66
2022/11/27 14:36:18;;;;;;;19.57;13.17;;;;;;;6.38;55.29;100225.31;10533954;28;20721;-66
2022/11/27 14:41:25;;;;;;;23.07;14.83;;;;;;;5.95;56.99;100226.72;10536318;28;20241;-66
2022/11/27 14:46:27;;;;;;;20.47;14.27;;;;;;;7.25;54.32;100200.06;10540754;28;20261;-67
2022/11/27 14:51:34;;;;;;;19.60;13.33;;;;;;;6.36;55.72;100200.72;10538805;28;20284;-67
2022/11/27 14:56:40;;;;;;;19.83;13.27;;;;;;;7.60;53.47;100211.69;10504869;28;20245;-68
2022/11/27 15:01:44;;;;;;;18.80;12.70;;;;;;;7.20;54.06;100191.69;10519385;28;20662;-67
2022/11/27 15:06:46;;;;;;;20.60;13.93;;;;;;;7.21;54.22;100213.81;10495445;28;20263;-68
2022/11/27 15:11:51;;;;;;;21.97;14.47;;;;;;;6.81;54.00;100187.47;10535284;28;20280;-68
2022/11/27 15:16:57;;;;;;;18.03;12.40;;;;;;;7.83;53.11;100205.84;10536163;28;20310;-68
2022/11/27 15:22:00;;;;;;;18.87;12.73;;;;;;;7.35;53.53;100195.47;10535009;28;20612;-68
2022/11/27 15:27:22;;;;;;;20.43;14.07;;;;;;;4.51;59.31;100164.50;10538600;28;20225;-67
2022/11/27 15:32:26;;;;;;;23.30;15.57;;;;;;;6.33;56.04;100169.09;10544081;28;20226;-69
2022/11/27 15:37:33;;;;;;;22.87;14.83;;;;;;;7.01;54.87;100175.88;10555791;28;20241;-70
2022/11/27 15:42:35;;;;;;;22.10;15.27;;;;;;;7.35;53.51;100158.22;10549279;28;20217;-70
2022/11/27 15:47:38;;;;;;;21.57;14.03;;;;;;;7.23;54.26;100155.97;10554653;28;20577;-71
2022/11/27 15:52:40;;;;;;;24.40;15.47;;;;;;;5.44;58.45;100168.50;10560025;28;20241;-70
2022/11/27 15:57:42;;;;;;;23.47;15.57;;;;;;;5.71;56.61;100131.59;10561099;28;20225;-71
2022/11/27 16:02:44;;;;;;;21.47;13.97;;;;;;;4.97;56.93;100131.22;10559791;28;20233;-69
2022/11/27 16:07:46;;;;;;;22.40;15.53;;;;;;;4.88;58.82;100142.66;10560211;28;20710;-69
2022/11/27 16:12:54;;;;;;;26.40;16.30;;;;;;;4.78;59.36;100137.34;10558597;28;20267;-68
2022/11/27 16:17:56;;;;;;;26.90;15.77;;;;;;;5.33;59.24;100119.06;10527267;28;20721;-68
2022/11/27 16:22:57;;;;;;;23.80;15.17;;;;;;;4.68;59.76;100099.41;10561387;28;20228;-69
2022/11/27 16:27:59;;;;;;;25.93;16.13;;;;;;;5.54;58.49;100096.81;10544258;28;20685;-71
2022/11/27 16:33:03;;;;;;;22.27;14.90;;;;;;;5.13;58.84;100107.63;10538336;28;20222;-70
2022/11/27 16:38:05;;;;;;;23.73;16.10;;;;;;;5.77;58.03;100065.44;10544854;28;20249;-69
2022/11/27 16:43:06;;;;;;;29.07;16.63;;;;;;;4.50;60.25;100056.81;10539447;28;20288;-68
2022/11/27 16:48:08;;;;;;;24.23;16.00;;;;;;;5.11;59.14;100051.19;10552785;28;20242;-67
2022/11/27 16:53:10;;;;;;;27.93;16.77;;;;;;;4.63;60.04;100036.19;10553728;28;20226;-68
2022/11/27 16:58:11;;;;;;;29.63;16.60;;;;;;;5.20;58.63;100017.69;10540329;28;20256;-67
2022/11/27 17:03:13;;;;;;;25.57;15.67;;;;;;;7.55;53.94;100041.69;10536140;28;20235;-68
2022/11/27 17:08:15;;;;;;;25.17;16.03;;;;;;;6.22;55.96;100000.88;10539354;28;20248;-68
2022/11/27 17:13:16;;;;;;;24.80;14.73;;;;;;;5.28;57.71;100009.00;10539208;28;20220;-66
2022/11/27 17:18:18;;;;;;;24.50;14.57;;;;;;;5.24;58.38;100010.28;10538774;28;20292;-65
2022/11/27 17:23:20;;;;;;;26.10;16.27;;;;;;;5.93;56.63;99992.28;10538565;28;20253;-69
2022/11/27 17:28:21;;;;;;;27.03;16.27;;;;;;;6.52;55.67;99961.63;10558982;28;20717;-67
2022/11/27 17:33:23;;;;;;;21.63;14.30;;;;;;;4.63;58.79;99987.63;10559672;28;20629;-71
2022/11/27 17:38:25;;;;;;;37.03;20.93;;;;;;;5.16;58.87;99994.25;10559927;28;20249;-68
2022/11/27 17:43:29;;;;;;;29.43;19.03;;;;;;;3.97;61.23;99974.03;10559387;28;20249;-73
2022/11/27 17:48:32;;;;;;;23.73;15.77;;;;;;;4.70;60.30;99986.91;10555900;28;20238;-67
2022/11/27 17:53:33;;;;;;;27.30;16.23;;;;;;;4.82;59.78;99970.88;10533614;28;20238;-67
2022/11/27 17:58:36;;;;;;;27.33;16.53;;;;;;;5.16;59.60;99951.78;10537556;28;20230;-67
2022/11/27 18:03:39;;;;;;;30.43;16.13;;;;;;;7.11;54.83;99929.97;10533120;28;20587;-67
2022/11/27 18:08:41;;;;;;;29.00;15.33;;;;;;;4.80;59.32;99954.28;10537153;28;20290;-67
2022/11/27 18:13:43;;;;;;;28.30;16.07;;;;;;;4.10;60.84;99946.44;10537319;28;20267;-69
2022/11/27 18:18:47;;;;;;;29.50;16.07;;;;;;;4.10;61.69;99943.78;10551874;28;20233;-69
2022/11/27 18:23:49;;;;;;;35.23;18.07;;;;;;;4.16;61.02;99911.47;10552815;28;20234;-68
2022/11/27 18:29:11;;;;;;;31.60;17.90;;;;;;;4.50;60.41;99906.59;10559923;28;20705;-69
2022/11/27 18:34:12;;;;;;;33.10;18.80;;;;;;;4.85;60.47;99896.34;10558556;28;20225;-68
2022/11/27 18:39:14;;;;;;;47.60;28.37;;;;;;;5.51;59.05;99884.72;10560025;28;20740;-67
2022/11/27 18:44:16;;;;;;;36.37;22.23;;;;;;;4.80;59.04;99856.16;10554633;28;20268;-69
2022/11/27 18:49:17;;;;;;;37.07;17.23;;;;;;;5.56;56.85;99855.09;10556985;28;20235;-68
2022/11/27 18:54:20;;;;;;;28.83;15.80;;;;;;;5.35;58.53;99874.75;10539351;28;20228;-68
2022/11/27 18:59:22;;;;;;;32.57;19.13;;;;;;;4.14;60.63;99889.59;10557588;28;20316;-68
2022/11/27 19:04:24;;;;;;;30.27;17.90;;;;;;;3.82;62.09;99880.09;10546133;28;20239;-71
2022/11/27 19:09:27;;;;;;;28.03;18.13;;;;;;;4.34;59.98;99878.03;10549049;28;20234;-69
2022/11/27 19:14:29;;;;;;;30.80;16.30;;;;;;;4.96;58.29;99853.72;10556455;28;20229;-68
2022/11/27 19:19:31;;;;;;;37.43;19.17;;;;;;;6.51;56.73;99835.00;10547278;28;20230;-69
2022/11/27 19:24:53;;;;;;;28.57;15.73;;;;;;;4.87;59.46;99857.25;10528207;28;20725;-68
2022/11/27 19:29:55;;;;;;;29.43;17.27;;;;;;;4.28;61.18;99880.38;10564716;28;20248;-69
2022/11/27 19:34:56;;;;;;;29.67;17.80;;;;;;;4.23;61.28;99862.25;10564411;28;20302;-68
2022/11/27 19:40:05;;;;;;;32.73;18.20;;;;;;;6.38;56.76;99811.50;10569113;28;20282;-70
2022/11/27 19:45:07;;;;;;;26.03;16.70;;;;;;;5.58;58.04;99842.50;10562419;28;20809;-69
2022/11/27 19:50:09;;;;;;;23.97;15.40;;;;;;;4.88;58.68;99856.25;10565745;28;20229;-68
2022/11/27 19:55:11;;;;;;;26.40;16.43;;;;;;;5.84;56.83;99838.16;10562319;28;20233;-68
2022/11/27 20:00:13;;;;;;;29.00;16.90;;;;;;;5.35;58.10;99864.13;10562611;28;20234;-68
2022/11/27 20:05:16;;;;;;;26.97;16.23;;;;;;;5.62;57.38;99851.84;10558458;28;20240;-68
2022/11/27 20:10:18;;;;;;;28.17;17.40;;;;;;;6.83;55.23;99865.47;10561240;28;20259;-69
2022/11/27 20:15:19;;;;;;;30.60;19.50;;;;;;;6.42;55.76;99855.38;10558844;28;20250;-69
2022/11/27 20:20:21;;;;;;;29.07;17.73;;;;;;;5.12;58.10;99851.28;10560376;28;20286;-69
2022/11/27 20:25:24;;;;;;;25.40;16.83;;;;;;;5.80;56.93;99849.22;10560998;28;20321;-69
2022/11/27 20:30:26;;;;;;;26.10;16.37;;;;;;;6.70;54.87;99868.53;10560126;28;20706;-68
2022/11/27 20:35:27;;;;;;;33.10;21.77;;;;;;;7.81;52.04;99917.44;10561220;28;20740;-69
2022/11/27 20:40:29;;;;;;;26.43;16.90;;;;;;;7.18;52.83;99875.09;10558033;28;20618;-68
2022/11/27 20:45:31;;;;;;;22.77;15.07;;;;;;;6.60;54.22;99859.81;10557275;28;20632;-70
2022/11/27 20:50:34;;;;;;;21.53;15.13;;;;;;;7.15;52.91;99890.56;10526951;28;20320;-68
2022/11/27 20:55:36;;;;;;;22.80;14.70;;;;;;;7.74;52.16;99931.38;10522726;28;20268;-68
2022/11/27 21:00:39;;;;;;;20.63;13.17;;;;;;;5.95;55.52;99876.09;10539830;28;20268;-68
2022/11/27 21:05:42;;;;;;;22.43;14.80;;;;;;;6.26;55.29;99879.16;10534997;28;20276;-68
2022/11/27 21:10:44;;;;;;;19.90;13.73;;;;;;;5.93;55.41;99872.75;10540690;28;20237;-67
2022/11/27 21:15:46;;;;;;;20.70;15.20;;;;;;;8.07;51.82;99950.16;10537444;28;20234;-68
2022/11/27 21:20:48;;;;;;;21.97;14.50;;;;;;;7.32;52.98;99897.63;10538097;28;20244;-68
2022/11/27 21:25:50;;;;;;;21.17;14.10;;;;;;;6.75;55.33;99879.56;10535940;28;20292;-67
2022/11/27 21:30:51;;;;;;;19.00;13.77;;;;;;;7.74;52.18;99912.75;10538717;28;20234;-67
2022/11/27 21:35:54;;;;;;;20.60;12.80;;;;;;;6.40;54.27;99891.09;10539165;28;20232;-67
2022/11/27 21:40:56;;;;;;;19.47;13.67;;;;;;;7.06;52.98;99862.25;10541226;28;20823;-67
2022/11/27 21:46:13;;;;;;;19.77;13.23;;;;;;;6.85;53.30;99857.31;10536382;28;20232;-67
2022/11/27 21:51:15;;;;;;;19.37;13.73;;;;;;;7.45;52.81;99883.03;10534940;28;20241;-68
2022/11/27 21:56:18;;;;;;;20.53;13.80;;;;;;;6.90;53.02;99847.03;10537433;28;20222;-67
2022/11/27 22:01:23;;;;;;;20.13;14.27;;;;;;;7.14;53.39;99846.34;10539726;28;20609;-67
2022/11/27 22:06:29;;;;;;;20.83;14.37;;;;;;;8.04;51.58;99899.84;10532884;28;20238;-67
2022/11/27 22:11:31;;;;;;;19.33;14.17;;;;;;;7.84;51.78;99887.78;10539035;28;20234;-68
2022/11/27 22:16:36;;;;;;;20.17;14.17;;;;;;;6.60;54.87;99868.63;10533609;28;20241;-68
2022/11/27 22:21:45;;;;;;;17.47;13.50;;;;;;;6.74;53.42;99819.34;10534466;28;20239;-68
2022/11/27 22:26:47;;;;;;;22.13;14.70;;;;;;;6.52;55.73;99841.16;10536345;28;20740;-66
2022/11/27 22:31:51;;;;;;;20.30;14.57;;;;;;;7.61;52.90;99837.81;10537388;28;20250;-67
2022/11/27 22:36:56;;;;;;;24.57;15.40;;;;;;;7.21;53.66;99822.53;10518325;28;20242;-68
2022/11/27 22:41:58;;;;;;;24.43;16.63;;;;;;;6.87;53.37;99787.03;10538986;28;20230;-67
2022/11/27 22:46:59;;;;;;;22.03;15.37;;;;;;;5.91;56.34;99826.88;10538396;28;20225;-68
2022/11/27 22:52:02;;;;;;;22.77;15.37;;;;;;;7.07;53.47;99786.75;10536342;27;20332;-68
2022/11/27 22:57:04;;;;;;;23.10;15.33;;;;;;;7.20;53.57;99788.97;10490568;28;20210;-67
2022/11/27 23:02:05;;;;;;;20.27;15.77;;;;;;;4.54;59.10;99771.97;10508592;28;20246;-67
2022/11/27 23:07:09;;;;;;;23.17;15.87;;;;;;;4.77;58.53;99773.25;10491132;28;20237;-67
2022/11/27 23:12:11;;;;;;;20.70;16.03;;;;;;;6.21;56.30;99746.78;10498487;28;20260;-68
2022/11/27 23:17:13;;;;;;;20.70;15.17;;;;;;;4.77;57.96;99752.06;10484937;28;20238;-67
2022/11/27 23:22:14;;;;;;;23.17;15.10;;;;;;;4.86;58.51;99754.81;10505285;28;20307;-67